Time;durP1;ratioP1;P1;durP2;ratioP2;P2;SDS_P1;SDS_P2;PMS_P1;PMS_P2;Temp;Humidity;BMP_temperature;BMP_pressure;BME280_temperature;BME280_humidity;BME280_pressure;Samples;Min_cycle;Max_cycle;Signal;HPM_P1;HPM_P2
2023/06/14 00:01:25;;;;;;;4.18;1.00;;;;;;;17.11;100.00;97378.59;5112422;28;20425;-71
2023/06/14 00:03:50;;;;;;;0.22;0.22;;;;;;;17.08;100.00;97380.72;5112395;28;20033;-71
2023/06/14 00:06:17;;;;;;;0.20;0.10;;;;;;;16.99;100.00;97370.75;5112105;28;20039;-71
2023/06/14 00:08:42;;;;;;;0.60;0.60;;;;;;;17.02;100.00;97379.44;5112177;28;20062;-71
2023/06/14 00:11:08;;;;;;;0.20;0.20;;;;;;;17.05;100.00;97375.59;5111825;28;20468;-71
2023/06/14 00:13:33;;;;;;;0.08;0.08;;;;;;;17.06;100.00;97374.59;5113367;28;20062;-71
2023/06/14 00:15:59;;;;;;;0.28;0.28;;;;;;;17.12;100.00;97382.16;5111745;28;20027;-72
2023/06/14 00:18:24;;;;;;;0.00;0.00;;;;;;;17.14;100.00;97372.03;5111559;28;20023;-72
2023/06/14 00:20:51;;;;;;;0.13;0.13;;;;;;;17.05;100.00;97367.47;5113285;28;20498;-72
2023/06/14 00:23:17;;;;;;;0.22;0.20;;;;;;;17.08;100.00;97375.31;5113057;27;20114;-72
2023/06/14 00:25:42;;;;;;;0.30;0.30;;;;;;;17.09;100.00;97369.78;5112051;28;20111;-72
2023/06/14 00:28:08;;;;;;;1.10;0.43;;;;;;;17.10;100.00;97368.75;5111690;28;20038;-72
2023/06/14 00:30:33;;;;;;;0.80;0.65;;;;;;;16.98;100.00;97361.78;5111811;28;20031;-72
2023/06/14 00:32:59;;;;;;;0.40;0.40;;;;;;;16.92;100.00;97361.50;5113186;28;20028;-72
2023/06/14 00:35:25;;;;;;;0.57;0.28;;;;;;;16.96;100.00;97371.00;5111605;28;20088;-71
2023/06/14 00:37:50;;;;;;;0.70;0.43;;;;;;;16.84;100.00;97356.78;5112765;28;20108;-72
2023/06/14 00:40:16;;;;;;;0.43;0.30;;;;;;;16.90;100.00;97352.66;5112644;28;20031;-72
2023/06/14 00:42:41;;;;;;;0.20;0.20;;;;;;;16.91;100.00;97357.06;5111514;28;20024;-72
2023/06/14 00:45:08;;;;;;;1.00;0.70;;;;;;;16.87;100.00;97348.38;5112640;28;20024;-72
2023/06/14 00:47:35;;;;;;;1.25;0.75;;;;;;;16.82;100.00;97347.97;5111375;28;20062;-72
2023/06/14 00:50:00;;;;;;;0.40;0.40;;;;;;;16.83;100.00;97344.25;5094555;28;20474;-72
2023/06/14 00:52:26;;;;;;;1.00;0.75;;;;;;;16.83;100.00;97343.41;5094099;28;20041;-72
2023/06/14 00:54:51;;;;;;;0.25;0.25;;;;;;;16.81;100.00;97335.44;5111170;28;20031;-73
2023/06/14 00:57:17;;;;;;;0.30;0.30;;;;;;;16.81;100.00;97332.72;5112352;27;20069;-72
2023/06/14 00:59:44;;;;;;;1.10;1.00;;;;;;;16.83;100.00;97343.41;5111244;28;20497;-72
2023/06/14 01:02:10;;;;;;;0.20;0.20;;;;;;;16.79;100.00;97338.28;5111164;28;20530;-72
2023/06/14 01:04:38;;;;;;;2.05;1.23;;;;;;;16.75;100.00;97342.25;5111247;28;20033;-71
2023/06/14 01:07:34;;;;;;;0.10;0.10;;;;;;;16.83;100.00;97351.53;5094389;28;20110;-72
2023/06/14 01:10:32;;;;;;;1.00;0.22;;;;;;;16.85;100.00;97352.22;5111386;28;20031;-72
2023/06/14 01:13:07;;;;;;;0.57;0.38;;;;;;;16.73;100.00;97348.78;5033019;28;20044;-72
2023/06/14 01:15:34;;;;;;;0.30;0.30;;;;;;;16.70;100.00;97349.91;5110902;28;20543;-71
2023/06/14 01:18:03;;;;;;;0.35;0.35;;;;;;;16.68;100.00;97356.44;5093901;28;20035;-72
2023/06/14 01:20:30;;;;;;;2.60;0.40;;;;;;;16.57;100.00;97349.31;5110856;28;20039;-71
2023/06/14 01:22:56;;;;;;;0.22;0.22;;;;;;;16.57;100.00;97354.72;5110868;28;20032;-72
2023/06/14 01:25:22;;;;;;;0.50;0.50;;;;;;;16.63;100.00;97354.16;5111702;28;20039;-72
2023/06/14 01:27:59;;;;;;;0.82;0.52;;;;;;;16.62;100.00;97351.59;5110394;28;20076;-72
2023/06/14 01:30:26;;;;;;;0.50;0.50;;;;;;;16.66;100.00;97361.13;5109915;28;20031;-72
2023/06/14 01:32:52;;;;;;;0.30;0.28;;;;;;;16.69;100.00;97364.41;5110766;28;20088;-72
2023/06/14 01:35:18;;;;;;;0.20;0.20;;;;;;;16.71;100.00;97357.03;5110329;28;20027;-72
2023/06/14 01:37:44;;;;;;;0.63;0.63;;;;;;;16.68;100.00;97357.28;5111542;28;20118;-72
2023/06/14 01:40:12;;;;;;;1.13;0.45;;;;;;;16.73;100.00;97357.72;5110417;28;20035;-72
2023/06/14 01:42:38;;;;;;;0.17;0.17;;;;;;;16.74;100.00;97362.16;5110394;28;20027;-72
2023/06/14 01:45:05;;;;;;;0.52;0.45;;;;;;;16.69;100.00;97356.31;5111603;28;20430;-72
2023/06/14 01:47:31;;;;;;;0.30;0.30;;;;;;;16.61;100.00;97355.28;5110260;28;20035;-72
2023/06/14 01:49:57;;;;;;;2.65;1.35;;;;;;;16.64;100.00;97358.56;5110253;28;20023;-72
2023/06/14 01:52:24;;;;;;;0.52;0.52;;;;;;;16.60;100.00;97359.84;5110039;28;20031;-72
2023/06/14 01:54:50;;;;;;;0.47;0.25;;;;;;;16.69;100.00;97359.00;5110267;28;20035;-72
2023/06/14 01:57:16;;;;;;;0.32;0.32;;;;;;;16.68;100.00;97356.44;5111163;28;20133;-72
2023/06/14 01:59:41;;;;;;;9.52;1.95;;;;;;;16.70;100.00;97362.56;5109943;28;20428;-72
2023/06/14 02:02:07;;;;;;;0.55;0.55;;;;;;;16.71;100.00;97356.16;5110073;28;20533;-72
2023/06/14 02:04:33;;;;;;;0.43;0.43;;;;;;;16.70;100.00;97351.78;5109877;28;20028;-72
2023/06/14 02:06:58;;;;;;;0.25;0.25;;;;;;;16.68;100.00;97351.88;5110087;28;20058;-72
2023/06/14 02:09:24;;;;;;;2.45;0.30;;;;;;;16.70;100.00;97355.28;5092685;28;20028;-72
2023/06/14 02:11:50;;;;;;;1.60;0.60;;;;;;;16.58;100.00;97356.41;5110011;28;20023;-73
2023/06/14 02:14:16;;;;;;;1.10;0.50;;;;;;;16.70;100.00;97366.09;5109686;28;20088;-73
2023/06/14 02:16:48;;;;;;;0.40;0.40;;;;;;;16.73;100.00;97371.22;5111074;28;20026;-72
2023/06/14 02:19:15;;;;;;;2.08;0.60;;;;;;;16.68;100.00;97370.78;5109935;28;20027;-72
2023/06/14 02:21:41;;;;;;;1.98;0.73;;;;;;;16.67;100.00;97371.78;5109972;28;20035;-73
2023/06/14 02:24:06;;;;;;;0.47;0.47;;;;;;;16.72;100.00;97377.66;5109701;28;20479;-73
2023/06/14 02:26:32;;;;;;;1.27;0.35;;;;;;;16.70;100.00;97371.50;5092554;28;20399;-73
2023/06/14 02:28:58;;;;;;;0.28;0.28;;;;;;;16.72;100.00;97371.38;5109863;28;20011;-73
2023/06/14 02:31:24;;;;;;;1.10;0.70;;;;;;;16.81;100.00;97373.25;5092439;28;20126;-72
2023/06/14 02:33:49;;;;;;;3.50;1.02;;;;;;;16.87;100.00;97382.66;5109654;28;20057;-72
2023/06/14 02:36:15;;;;;;;4.13;1.42;;;;;;;16.86;100.00;97375.56;5111048;28;20032;-73
2023/06/14 02:38:41;;;;;;;0.43;0.38;;;;;;;16.79;100.00;97375.25;5110489;28;20043;-73
2023/06/14 02:41:06;;;;;;;1.13;0.17;;;;;;;16.84;100.00;97380.22;5109397;28;20045;-72
2023/06/14 02:43:32;;;;;;;1.55;1.20;;;;;;;16.82;100.00;97380.38;5110893;28;20493;-72
2023/06/14 02:45:57;;;;;;;2.67;0.52;;;;;;;16.79;100.00;97383.34;5109546;28;20047;-73
2023/06/14 02:48:23;;;;;;;1.13;0.73;;;;;;;16.73;100.00;97378.50;5109431;28;20023;-73
2023/06/14 02:50:48;;;;;;;0.70;0.70;;;;;;;16.73;100.00;97379.34;5109418;28;20509;-72
2023/06/14 02:53:14;;;;;;;0.05;0.05;;;;;;;16.73;100.00;97376.63;5110892;28;20023;-72
2023/06/14 02:55:40;;;;;;;0.50;0.40;;;;;;;16.72;100.00;97383.06;5109172;28;20019;-72
2023/06/14 02:58:06;;;;;;;2.92;1.35;;;;;;;16.73;100.00;97384.72;5109300;28;20023;-72
2023/06/14 03:00:31;;;;;;;0.38;0.38;;;;;;;16.69;100.00;97388.72;5092175;28;20023;-73
2023/06/14 03:02:57;;;;;;;1.00;0.88;;;;;;;16.65;100.00;97379.19;5109354;28;20359;-72
2023/06/14 03:05:23;;;;;;;2.40;0.35;;;;;;;16.63;100.00;97383.88;5110762;28;20019;-71
2023/06/14 03:07:50;;;;;;;2.45;0.73;;;;;;;16.65;100.00;97378.31;5109167;28;20088;-71
2023/06/14 03:10:15;;;;;;;0.20;0.20;;;;;;;16.69;100.00;97390.56;5092344;28;20023;-72
2023/06/14 03:12:41;;;;;;;11.13;0.65;;;;;;;16.74;100.00;97405.38;5110241;28;20406;-72
2023/06/14 03:15:07;;;;;;;1.77;0.65;;;;;;;16.72;100.00;97401.97;5110684;28;20072;-71
2023/06/14 03:17:35;;;;;;;0.52;0.52;;;;;;;16.71;100.00;97404.78;5109131;28;20020;-72
2023/06/14 03:20:01;;;;;;;1.15;0.68;;;;;;;16.73;100.00;97397.41;5092286;28;20126;-71
2023/06/14 03:22:26;;;;;;;0.38;0.38;;;;;;;16.77;100.00;97405.09;5109249;28;20023;-72
2023/06/14 03:24:53;;;;;;;1.23;0.70;;;;;;;16.83;100.00;97413.66;5110143;28;20042;-72
2023/06/14 03:27:19;;;;;;;0.35;0.30;;;;;;;16.81;100.00;97405.69;5109191;28;20077;-72
2023/06/14 03:29:45;;;;;;;0.82;0.80;;;;;;;16.80;100.00;97407.53;5091898;28;20444;-71
2023/06/14 03:32:10;;;;;;;0.75;0.68;;;;;;;16.79;100.00;97411.22;5091969;28;20061;-75
2023/06/14 03:34:38;;;;;;;2.05;1.50;;;;;;;16.76;100.00;97408.78;5108963;28;20016;-72
2023/06/14 03:37:03;;;;;;;1.40;0.70;;;;;;;16.76;100.00;97411.47;5108917;28;20039;-73
2023/06/14 03:39:29;;;;;;;0.93;0.50;;;;;;;16.83;100.00;97413.66;5108777;28;20398;-73
2023/06/14 03:41:54;;;;;;;4.28;0.55;;;;;;;16.85;100.00;97415.22;5108966;28;20058;-73
2023/06/14 03:44:21;;;;;;;0.50;0.50;;;;;;;16.75;100.00;97412.50;5091916;28;20023;-73
2023/06/14 03:46:46;;;;;;;0.73;0.73;;;;;;;16.83;100.00;97422.59;5091934;28;20467;-72
2023/06/14 03:49:12;;;;;;;1.10;0.60;;;;;;;16.84;100.00;97427.03;5109093;28;20098;-72
2023/06/14 03:51:39;;;;;;;1.98;1.10;;;;;;;16.78;100.00;97423.03;5110638;28;20051;-72
2023/06/14 03:54:05;;;;;;;1.30;1.20;;;;;;;16.84;100.00;97418.06;5095755;28;20035;-72
2023/06/14 03:56:31;;;;;;;1.45;1.35;;;;;;;16.83;100.00;97425.28;5112656;28;20028;-71
2023/06/14 03:58:56;;;;;;;7.78;0.73;;;;;;;16.83;100.00;97429.88;5094849;28;20028;-72
2023/06/14 04:01:27;;;;;;;0.43;0.43;;;;;;;16.87;100.00;97426.75;5112687;28;20038;-72
2023/06/14 04:03:52;;;;;;;0.47;0.47;;;;;;;16.80;100.00;97421.03;5094811;28;20032;-71
2023/06/14 04:06:19;;;;;;;3.03;1.35;;;;;;;16.86;100.00;97424.19;5113761;28;20030;-72
2023/06/14 04:08:45;;;;;;;0.63;0.50;;;;;;;16.84;100.00;97423.47;5111964;28;20066;-72
2023/06/14 04:11:11;;;;;;;0.30;0.28;;;;;;;16.75;100.00;97417.03;5095614;28;20027;-73
2023/06/14 04:13:37;;;;;;;0.30;0.30;;;;;;;16.83;100.00;97429.88;5112424;28;20038;-72
2023/06/14 04:16:03;;;;;;;4.85;1.25;;;;;;;16.87;100.00;97415.06;5095266;28;20027;-73
2023/06/14 04:18:28;;;;;;;0.82;0.77;;;;;;;16.84;100.00;97418.91;5112230;28;20391;-73
2023/06/14 04:20:56;;;;;;;0.85;0.70;;;;;;;16.87;100.00;97425.88;5111954;28;20035;-72
2023/06/14 04:23:22;;;;;;;0.20;0.20;;;;;;;16.87;100.00;97426.75;5112075;28;20475;-72
2023/06/14 04:25:49;;;;;;;0.70;0.70;;;;;;;16.85;100.00;97415.22;5113657;28;20038;-82
2023/06/14 04:28:19;;;;;;;2.75;1.98;;;;;;;16.90;100.00;97421.06;5095477;28;20019;-79
2023/06/14 04:30:45;;;;;;;0.80;0.80;;;;;;;16.89;100.00;97421.22;5112235;28;20459;-82
2023/06/14 04:33:11;;;;;;;0.30;0.30;;;;;;;16.85;100.00;97411.66;5112287;28;20027;-81
2023/06/14 04:35:37;;;;;;;0.38;0.38;;;;;;;16.86;100.00;97414.22;5097577;28;20038;-81
2023/06/14 04:38:09;;;;;;;2.25;0.73;;;;;;;16.88;100.00;97416.78;5111161;28;20050;-73
2023/06/14 04:40:42;;;;;;;0.47;0.47;;;;;;;16.93;100.00;97403.72;5111991;28;20059;-72
2023/06/14 04:43:08;;;;;;;1.30;0.60;;;;;;;16.97;100.00;97416.84;5095446;28;20027;-72
2023/06/14 04:45:34;;;;;;;0.88;0.82;;;;;;;16.89;100.00;97413.94;5112917;28;20019;-72
2023/06/14 04:47:59;;;;;;;1.85;0.63;;;;;;;16.88;100.00;97406.00;5111190;28;20028;-72
2023/06/14 04:50:26;;;;;;;1.92;1.20;;;;;;;16.94;100.00;97394.63;5111540;28;20020;-74
2023/06/14 04:52:52;;;;;;;0.93;0.93;;;;;;;17.09;100.00;97402.22;5111524;28;20024;-72
2023/06/14 04:55:19;;;;;;;5.45;2.30;;;;;;;17.21;100.00;97397.53;5094284;28;20030;-73
2023/06/14 05:19:35;;;;;;;2.03;1.00;;;;;;;17.96;100.00;97362.56;4973361;28;2985709;-75
2023/06/14 05:22:02;;;;;;;1.00;0.63;;;;;;;18.09;100.00;97363.09;5065817;28;20045;-75
2023/06/14 05:24:30;;;;;;;0.20;0.20;;;;;;;18.10;100.00;97353.97;5066438;28;20035;-74
2023/06/14 05:26:56;;;;;;;2.40;1.10;;;;;;;18.22;100.00;97344.66;5049544;28;20036;-74
2023/06/14 05:29:21;;;;;;;0.25;0.25;;;;;;;18.43;100.00;97345.31;5066460;28;20032;-75
2023/06/14 05:31:47;;;;;;;1.58;1.13;;;;;;;18.58;100.00;97337.56;5046196;28;20029;-75
2023/06/14 05:34:13;;;;;;;0.20;0.20;;;;;;;18.70;100.00;97324.69;5065411;28;20526;-75
2023/06/14 05:36:38;;;;;;;0.20;0.20;;;;;;;18.63;100.00;97308.19;5066119;28;20029;-75
2023/06/14 05:39:05;;;;;;;0.30;0.30;;;;;;;18.91;100.00;97322.59;5065763;28;20517;-75
2023/06/14 05:41:31;;;;;;;0.70;0.70;;;;;;;19.10;100.00;97299.91;5046251;28;20025;-75
2023/06/14 05:43:57;;;;;;;0.20;0.20;;;;;;;19.45;100.00;97286.38;5062825;28;20097;-75
2023/06/14 05:46:25;;;;;;;0.68;0.68;;;;;;;19.57;100.00;97287.81;5065826;28;20021;-75
2023/06/14 05:48:54;;;;;;;0.40;0.17;;;;;;;19.80;100.00;97280.91;5065877;28;20020;-76
2023/06/14 05:51:20;;;;;;;0.55;0.30;;;;;;;19.88;100.00;97280.09;5065597;28;20072;-76
2023/06/14 05:53:47;;;;;;;0.90;0.85;;;;;;;19.97;100.00;97285.41;5065679;28;20056;-74
2023/06/14 05:56:13;;;;;;;0.35;0.35;;;;;;;19.84;100.00;97279.53;5065514;28;20415;-74
2023/06/14 05:58:39;;;;;;;1.27;0.73;;;;;;;19.73;100.00;97282.53;5065618;28;20028;-74
2023/06/14 06:01:05;;;;;;;1.75;0.82;;;;;;;19.77;100.00;97289.34;5066437;28;20029;-74
2023/06/14 06:03:30;;;;;;;0.60;0.60;;;;;;;19.82;100.00;97276.16;5065371;28;20170;-75
2023/06/14 06:05:56;;;;;;;0.28;0.22;;;;;;;19.82;100.00;97264.44;5065068;28;20419;-75
2023/06/14 06:08:21;;;;;;;1.02;0.85;;;;;;;20.04;100.00;97266.63;5065176;28;20021;-75
2023/06/14 06:10:47;;;;;;;0.20;0.17;;;;;;;20.28;100.00;97264.06;5066410;28;20028;-75
2023/06/14 06:13:12;;;;;;;0.20;0.20;;;;;;;20.12;100.00;97254.97;5064715;28;20025;-74
2023/06/14 06:15:38;;;;;;;1.77;0.50;;;;;;;20.34;100.00;97254.41;5058959;28;20037;-75
2023/06/14 06:18:03;;;;;;;0.75;0.55;;;;;;;20.14;100.00;97253.78;5032173;28;20029;-75
2023/06/14 06:20:31;;;;;;;0.10;0.10;;;;;;;20.05;100.00;97259.34;5055017;28;20153;-75
2023/06/14 06:23:00;;;;;;;0.25;0.17;;;;;;;20.02;100.00;97266.81;5073097;28;20046;-75
2023/06/14 06:25:28;;;;;;;0.15;0.05;;;;;;;19.92;100.00;97267.91;5054804;28;20438;-75
2023/06/14 06:27:56;;;;;;;1.05;0.75;;;;;;;19.86;100.00;97266.69;5055027;28;20101;-75
2023/06/14 06:30:22;;;;;;;0.00;0.00;;;;;;;19.56;100.00;97259.00;5054979;28;20085;-75
2023/06/14 06:32:47;;;;;;;0.43;0.40;;;;;;;19.56;100.00;97264.44;5051473;28;20029;-75
2023/06/14 06:35:13;;;;;;;0.20;0.15;;;;;;;19.87;100.00;97272.97;5070290;28;20064;-75
2023/06/14 06:37:39;;;;;;;0.35;0.35;;;;;;;19.97;100.00;97263.69;5034886;28;20036;-75
2023/06/14 06:40:05;;;;;;;0.10;0.10;;;;;;;20.03;100.00;97268.47;5051393;28;20024;-74
2023/06/14 06:42:37;;;;;;;0.10;0.10;;;;;;;20.27;100.00;97275.94;5051376;28;20033;-74
2023/06/14 06:45:03;;;;;;;0.40;0.40;;;;;;;20.03;100.00;97273.06;5034548;28;20024;-76
2023/06/14 06:47:28;;;;;;;1.90;0.70;;;;;;;20.17;100.00;97279.78;5037258;28;20028;-75
2023/06/14 06:49:54;;;;;;;0.40;0.32;;;;;;;20.33;100.00;97279.91;5054587;28;20477;-75
2023/06/14 06:52:22;;;;;;;0.77;0.57;;;;;;;20.42;100.00;97282.50;5036035;28;20043;-74
2023/06/14 06:54:49;;;;;;;1.92;0.73;;;;;;;20.69;100.00;97280.56;5054592;28;20025;-75
2023/06/14 06:57:14;;;;;;;0.43;0.43;;;;;;;20.83;100.00;97272.63;5072468;28;20028;-75
2023/06/14 06:59:40;;;;;;;0.22;0.22;;;;;;;20.87;100.00;97263.13;5034787;28;20431;-75
2023/06/14 07:02:06;;;;;;;0.30;0.30;;;;;;;20.70;100.00;97269.53;5050234;28;20098;-75
2023/06/14 07:04:31;;;;;;;0.30;0.20;;;;;;;20.86;100.00;97275.00;5036932;28;20036;-75
2023/06/14 07:06:57;;;;;;;0.90;0.55;;;;;;;21.10;100.00;97270.69;5054280;28;20107;-75
2023/06/14 07:09:24;;;;;;;0.15;0.15;;;;;;;21.20;100.00;97265.94;5054032;28;20028;-75
2023/06/14 07:11:50;;;;;;;0.47;0.30;;;;;;;21.18;100.00;97278.84;5051034;28;20090;-75
2023/06/14 07:14:15;;;;;;;0.80;0.68;;;;;;;20.98;100.00;97265.53;5033844;28;20045;-76
2023/06/14 07:16:41;;;;;;;0.10;0.10;;;;;;;21.37;100.00;97271.25;5034261;28;20420;-75
2023/06/14 07:19:07;;;;;;;0.63;0.50;;;;;;;21.74;100.00;97268.00;5067931;28;20063;-75
2023/06/14 07:21:32;;;;;;;0.32;0.28;;;;;;;22.05;100.00;97260.88;5036296;28;20517;-76
2023/06/14 07:23:58;;;;;;;0.15;0.10;;;;;;;21.54;100.00;97261.19;5050735;28;20111;-75
2023/06/14 07:26:23;;;;;;;5.22;0.65;;;;;;;21.55;100.00;97263.78;5051615;28;20029;-75
2023/06/14 07:28:49;;;;;;;0.30;0.30;;;;;;;21.75;100.00;97261.53;5050041;28;20156;-74
2023/06/14 07:31:16;;;;;;;0.17;0.17;;;;;;;21.82;100.00;97254.38;5033959;28;20035;-75
2023/06/14 07:33:42;;;;;;;0.70;0.40;;;;;;;22.07;100.00;97261.53;5071500;28;20036;-75
2023/06/14 07:36:08;;;;;;;2.00;0.85;;;;;;;22.13;100.00;97274.47;5050579;28;20037;-75
2023/06/14 07:38:33;;;;;;;0.20;0.20;;;;;;;22.36;100.00;97260.09;5035724;28;20029;-75
2023/06/14 07:41:00;;;;;;;0.10;0.10;;;;;;;22.47;100.00;97270.63;5050528;28;20092;-74
2023/06/14 07:43:25;;;;;;;0.10;0.10;;;;;;;22.62;100.00;97264.25;5051069;28;20016;-75
2023/06/14 07:45:51;;;;;;;0.28;0.28;;;;;;;23.05;100.00;97251.94;5050271;28;20511;-75
2023/06/14 07:48:19;;;;;;;0.30;0.20;;;;;;;23.65;100.00;97246.59;5067855;28;20024;-75
2023/06/14 07:50:45;;;;;;;0.20;0.20;;;;;;;23.96;100.00;97254.69;5053453;28;20024;-76
2023/06/14 07:53:10;;;;;;;0.30;0.30;;;;;;;23.80;100.00;97245.78;5050259;28;20024;-75
2023/06/14 07:55:39;;;;;;;0.43;0.43;;;;;;;23.88;100.00;97241.09;5069824;28;20036;-75
2023/06/14 07:58:06;;;;;;;2.72;0.68;;;;;;;23.85;100.00;97238.72;5050310;28;20392;-76
2023/06/14 08:00:31;;;;;;;0.32;0.32;;;;;;;24.16;100.00;97250.41;5068879;28;20024;-76
2023/06/14 08:02:59;;;;;;;0.63;0.35;;;;;;;24.71;100.00;97249.94;5033441;28;20416;-75
2023/06/14 08:05:25;;;;;;;1.25;0.63;;;;;;;25.10;100.00;97246.84;5070527;28;20020;-75
2023/06/14 08:07:51;;;;;;;0.13;0.13;;;;;;;25.01;100.00;97253.47;5048194;28;20017;-75
2023/06/14 08:10:17;;;;;;;0.68;0.38;;;;;;;25.65;100.00;97259.06;5053206;28;20368;-76
2023/06/14 08:12:42;;;;;;;0.63;0.63;;;;;;;25.87;100.00;97256.09;5071088;28;20095;-75
2023/06/14 08:15:08;;;;;;;0.30;0.30;;;;;;;25.70;100.00;97264.81;5052710;28;20025;-75
2023/06/14 08:17:34;;;;;;;1.45;0.85;;;;;;;25.60;100.00;97250.56;5070923;28;20024;-75
2023/06/14 08:20:00;;;;;;;4.28;0.93;;;;;;;25.81;100.00;97267.00;5053016;28;20062;-76
2023/06/14 08:22:27;;;;;;;0.30;0.30;;;;;;;25.61;100.00;97268.72;5070703;28;20032;-76
2023/06/14 08:24:54;;;;;;;0.73;0.45;;;;;;;25.52;100.00;97258.94;5053133;28;20035;-75
2023/06/14 08:27:20;;;;;;;0.28;0.28;;;;;;;25.91;100.00;97272.16;5051095;28;20040;-75
2023/06/14 08:29:46;;;;;;;0.15;0.15;;;;;;;26.61;100.00;97266.59;5070549;28;20054;-75
2023/06/14 08:32:12;;;;;;;0.20;0.20;;;;;;;26.62;100.00;97260.91;5049631;28;20043;-75
2023/06/14 08:34:37;;;;;;;1.55;0.85;;;;;;;26.60;100.00;97265.75;5070644;28;20033;-75
2023/06/14 08:37:03;;;;;;;0.35;0.35;;;;;;;26.66;100.00;97250.38;5049493;28;20090;-74
2023/06/14 08:39:29;;;;;;;0.28;0.28;;;;;;;26.85;100.00;97247.75;5051316;28;20036;-76
2023/06/14 08:41:54;;;;;;;0.32;0.32;;;;;;;27.16;100.00;97249.16;5035697;28;20455;-75
2023/06/14 08:44:20;;;;;;;0.38;0.38;;;;;;;26.99;100.00;97251.41;5050274;28;20032;-74
2023/06/14 08:46:47;;;;;;;0.35;0.35;;;;;;;27.06;100.00;97241.28;5052611;28;20032;-75
2023/06/14 08:49:14;;;;;;;0.30;0.30;;;;;;;27.27;100.00;97238.41;5052679;28;20574;-75
2023/06/14 08:51:40;;;;;;;0.35;0.35;;;;;;;27.41;100.00;97242.00;5052675;28;20017;-75
2023/06/14 08:54:06;;;;;;;0.40;0.40;;;;;;;26.67;100.00;97219.97;5070623;28;20404;-75
2023/06/14 08:56:33;;;;;;;1.17;0.73;;;;;;;27.13;100.00;97242.19;5052432;28;20024;-76
2023/06/14 08:59:06;;;;;;;0.70;0.63;;;;;;;26.25;100.00;97239.34;5035804;28;20028;-76
2023/06/14 09:01:36;;;;;;;0.85;0.85;;;;;;;25.93;100.00;97249.00;5053224;28;20028;-76
2023/06/14 09:04:02;;;;;;;2.40;1.42;;;;;;;25.96;100.00;97231.31;5032418;28;20045;-75
2023/06/14 09:06:29;;;;;;;2.28;1.33;;;;;;;26.17;100.00;97248.59;5052130;28;20461;-75
2023/06/14 09:08:58;;;;;;;0.55;0.30;;;;;;;26.06;100.00;97229.03;5052394;28;20024;-75
2023/06/14 09:11:25;;;;;;;0.50;0.50;;;;;;;27.54;100.00;97236.59;5070053;28;20491;-76
2023/06/14 09:13:51;;;;;;;0.43;0.43;;;;;;;29.27;99.42;97237.00;5052536;28;20056;-74
2023/06/14 09:16:16;;;;;;;0.85;0.77;;;;;;;31.28;81.13;97226.28;5032362;28;20459;-74
2023/06/14 09:18:49;;;;;;;15.18;0.82;;;;;;;32.33;73.97;97221.09;5034799;28;20020;-75
2023/06/14 09:21:16;;;;;;;6.88;3.80;;;;;;;33.15;68.34;97215.25;5052821;28;20044;-75
2023/06/14 09:23:44;;;;;;;5.03;3.92;;;;;;;32.05;69.17;97194.94;5070364;28;20020;-75
2023/06/14 09:26:15;;;;;;;5.80;3.83;;;;;;;30.06;82.51;97212.50;5034719;28;20032;-75
2023/06/14 09:28:50;;;;;;;5.95;4.18;;;;;;;29.86;87.71;97209.06;5052495;28;20029;-75
2023/06/14 09:31:18;;;;;;;16.70;5.55;;;;;;;30.01;93.35;97228.91;5052019;28;20035;-75
2023/06/14 09:33:48;;;;;;;11.77;4.60;;;;;;;30.12;90.79;97216.28;5069838;28;20032;-75
2023/06/14 09:36:18;;;;;;;10.00;5.25;;;;;;;29.62;93.53;97221.75;5034342;28;20021;-75
2023/06/14 09:39:00;;;;;;;13.10;4.40;;;;;;;31.64;78.71;97212.38;5032251;28;20119;-76
2023/06/14 09:41:52;;;;;;;;;;;;;;;31.75;74.36;97201.59;5046608;28;20028;-76
2023/06/14 09:44:18;;;;;;;5.20;4.20;;;;;;;30.97;74.53;97179.50;5059550;28;19912;-76
2023/06/14 09:46:44;;;;;;;6.72;4.20;;;;;;;29.91;86.33;97192.69;5052379;28;20521;-75
2023/06/14 09:49:10;;;;;;;9.73;4.05;;;;;;;31.78;76.44;97201.13;5051872;28;20463;-75
2023/06/14 09:51:43;;;;;;;5.75;3.65;;;;;;;32.33;68.24;97188.69;5051468;28;20032;-76
2023/06/14 09:54:25;;;;;;;6.30;4.13;;;;;;;30.30;77.94;97177.69;5053794;28;20553;-77
2023/06/14 09:56:56;;;;;;;7.00;4.85;;;;;;;30.35;79.50;97177.84;5035861;28;20115;-76
2023/06/14 09:59:48;;;;;;;9.75;6.43;;;;;;;31.78;77.54;97198.34;5056401;28;20082;-76
2023/06/14 10:02:29;;;;;;;8.35;3.78;;;;;;;33.05;66.09;97184.50;5049231;28;20037;-75
2023/06/14 10:05:12;;;;;;;5.70;3.80;;;;;;;32.43;63.21;97165.91;5055783;28;20020;-75
2023/06/14 10:07:42;;;;;;;6.07;4.20;;;;;;;33.08;63.52;97169.31;5028947;28;20025;-75
2023/06/14 10:10:08;;;;;;;7.88;4.40;;;;;;;34.42;53.54;97160.13;5052894;28;20518;-75
2023/06/14 10:12:34;;;;;;;7.38;3.97;;;;;;;35.17;52.76;97173.38;5055007;28;20505;-75
2023/06/14 10:15:01;;;;;;;5.95;4.28;;;;;;;34.82;51.22;97155.13;5035237;28;20067;-75
2023/06/14 10:17:36;;;;;;;7.70;4.57;;;;;;;33.22;57.66;97148.56;5038491;28;20115;-74
2023/06/14 10:20:32;;;;;;;7.85;4.50;;;;;;;33.63;58.33;97151.00;5066605;28;20048;-75
2023/06/14 10:23:17;;;;;;;5.05;4.22;;;;;;;30.62;69.62;97141.44;5019191;28;20036;-76
2023/06/14 10:25:43;;;;;;;7.40;4.70;;;;;;;32.63;63.64;97163.66;5035023;28;20028;-75
2023/06/14 10:28:19;;;;;;;9.85;6.50;;;;;;;32.88;65.74;97163.34;5052881;28;20025;-76
2023/06/14 10:31:07;;;;;;;9.55;4.82;;;;;;;31.07;72.75;97136.41;5052992;28;20104;-74
2023/06/14 10:33:51;;;;;;;10.63;5.13;;;;;;;30.42;79.45;97145.50;5052728;28;20021;-74
2023/06/14 10:36:27;;;;;;;7.30;4.68;;;;;;;28.80;88.33;97139.94;5018603;28;20029;-74
2023/06/14 10:39:14;;;;;;;7.63;4.45;;;;;;;29.00;88.66;97146.19;5034930;28;20033;-75
2023/06/14 10:41:41;;;;;;;6.13;4.40;;;;;;;30.03;80.84;97153.09;5035061;28;20035;-75
2023/06/14 10:44:12;;;;;;;5.82;4.13;;;;;;;29.43;79.96;97135.34;5034943;28;20086;-75
2023/06/14 10:46:38;;;;;;;;;;;;;;;31.75;69.55;97160.09;5034920;28;20032;-74
2023/06/14 10:49:03;;;;;;;5.32;4.07;;;;;;;31.81;67.66;97148.91;5034694;28;19970;-75
2023/06/14 10:51:30;;;;;;;5.00;4.38;;;;;;;31.79;66.51;97141.91;5052250;28;20159;-75
2023/06/14 10:53:59;;;;;;;6.45;3.85;;;;;;;33.34;60.32;97170.69;5034831;28;20484;-74
2023/06/14 10:56:31;;;;;;;5.95;4.47;;;;;;;35.41;51.92;97169.22;5034492;28;20040;-75
2023/06/14 10:58:59;;;;;;;4.55;3.80;;;;;;;37.16;45.53;97158.94;5014776;28;20091;-75
2023/06/14 11:01:40;;;;;;;4.40;4.00;;;;;;;38.08;43.10;97146.88;5034162;28;20564;-75
2023/06/14 11:04:10;;;;;;;4.83;3.63;;;;;;;37.66;42.37;97124.72;5035099;28;20024;-76
2023/06/14 11:06:46;;;;;;;4.75;3.97;;;;;;;37.96;43.42;97130.38;5015720;28;20418;-78
2023/06/14 11:09:50;;;;;;;7.32;4.22;;;;;;;37.32;43.45;97102.88;5031688;28;20454;-76
2023/06/14 11:12:17;;;;;;;8.75;3.88;;;;;;;35.64;47.55;97085.44;5031337;28;20087;-76
2023/06/14 11:14:46;;;;;;;6.88;3.30;;;;;;;35.30;51.24;97095.94;5013985;28;20044;-76
2023/06/14 11:17:12;;;;;;;7.53;4.63;;;;;;;33.31;57.75;97074.94;5031786;28;20451;-78
2023/06/14 11:19:37;;;;;;;4.60;4.10;;;;;;;32.22;65.03;97076.84;5031247;28;20048;-77
2023/06/14 11:22:03;;;;;;;11.23;4.50;;;;;;;31.40;72.80;97086.16;5033690;28;20059;-77
2023/06/14 11:24:29;;;;;;;14.10;3.92;;;;;;;30.35;80.76;97101.38;5029569;28;20030;-77
2023/06/14 11:26:56;;;;;;;4.57;3.55;;;;;;;29.85;84.89;97091.53;5049456;28;20032;-77
2023/06/14 11:29:22;;;;;;;4.93;3.55;;;;;;;29.63;86.89;97109.50;5047700;28;20036;-75
2023/06/14 11:31:47;;;;;;;8.40;3.30;;;;;;;30.13;83.65;97102.91;5021411;28;20025;-76
2023/06/14 11:34:13;;;;;;;5.25;3.70;;;;;;;31.51;72.78;97103.88;5049434;28;20031;-77
2023/06/14 11:36:39;;;;;;;8.05;3.47;;;;;;;33.74;62.82;97114.03;5030210;28;20025;-77
2023/06/14 11:39:09;;;;;;;3.88;3.17;;;;;;;35.47;54.06;97117.25;5030747;28;20029;-77
2023/06/14 11:41:44;;;;;;;5.47;3.17;;;;;;;35.14;51.79;97101.59;5031223;28;20492;-76
2023/06/14 11:44:09;;;;;;;3.80;3.25;;;;;;;35.77;53.42;97112.84;5047530;28;20028;-77
2023/06/14 11:46:35;;;;;;;5.85;3.60;;;;;;;34.56;54.19;97094.72;5048707;28;20553;-75
2023/06/14 11:49:06;;;;;;;4.53;3.20;;;;;;;33.15;58.47;97071.06;5047628;28;20036;-76
2023/06/14 11:51:33;;;;;;;8.13;4.15;;;;;;;31.61;67.30;97062.63;5047599;28;20032;-76